Luksor, Egipt

05:15 PM EET on oktober 22, 2018 (GMT +0200)
Luxor | | Change Station

Viš 289 ft 25.67 °N, 32.70 °E | Updated 1 hour ago

Delno oblacno
Delno oblacno
102 °F
Feels Like 101 °F
N
5
Veter Spremenljivo Veter od JZ

Danes
High -- | Low -- °F
--% Chance of Precip.
Yesterday
High -- | Low -- °F
Precip. -- v
Zračni tlak 29.83 v
Vidljivost 6.2 milje
Oblaki Razprseni oblaki 3000 ft
Toplotni indeks 101 °F
Rosišče 55 °F
Vlažnost 21%
Padavine 0.00 v
Snow Depth Not available.
5:51 AM 5:16 PM
Naraščajoča luna, 95% visible
METAR HELX 221400Z 22004KT 9999 SCT030 39/13 Q1010 NOSIG
Zračni tlak 29.83 v
Vidljivost 6.2 milje
Oblaki Razprseni oblaki 3000 ft
Toplotni indeks 101 °F
Rosišče 55 °F
Vlažnost 21%
Padavine 0.00 v
Snow Depth Not available.
5:51 AM 5:16 PM
Naraščajoča luna, 95% visible
METAR HELX 221400Z 22004KT 9999 SCT030 39/13 Q1010 NOSIG

Get Severe Weather Alerts

Thanks for signing up!

Be on the lookout for a verification email in your inbox.

You'll start receiving the daily forecast at 6 AM.

×

10-Day Weather Forecast

No radar image for this location.
×

Almanac

Astronomija

Oct. 22, 2018 Rise Set
Actual Time
Civil Twilight
Nautical Twilight
Astronomical Twilight
Moon
Length Of Visible Light
Dolžina dneva
Tomorrow will be .
, % of the Moon is Illuminated

Današnji ekstremi

Country Highs Country Lows

Community

WunderPhotos

Category 6

Welcome to Category 6. This is the collective home for Weather Underground's featured writeups by Dr. Jeff Masters (right), Bob Henson (left), Chris Burt, and other regular contributors.

Nearby

Air Quality

  Air Quality AQ Index Pollutant
Not available.

Snow Depth

Station Depth Višina

Earthquake Activity

City Distance Mag. Time & Date
Minimum magnitude displayed is 2.5.

Coastal Water Temperatures

Mesto Temperatura

Stations

Nearby Weather Stations

Station Location Temp Občutek zaradi vetra Rosišče Vlažnost Veter Precip. Viš Obnovljeno Type